Time;durP1;ratioP1;P1;durP2;ratioP2;P2;SDS_P1;SDS_P2;PMS_P1;PMS_P2;Temp;Humidity;BMP_temperature;BMP_pressure;BME280_temperature;BME280_humidity;BME280_pressure;Samples;Min_cycle;Max_cycle;Signal;HPM_P1;HPM_P2
2022/03/21 00:01:10;;;;;;;26.65;15.63;;;3.10;96.00;;;;;;4905329;28;20145;-59
2022/03/21 00:03:38;;;;;;;30.10;16.85;;;3.20;96.60;;;;;;4889380;29;20058;-59
2022/03/21 00:06:05;;;;;;;33.28;17.90;;;3.10;97.00;;;;;;4907291;29;20884;-59
2022/03/21 00:08:32;;;;;;;37.95;17.20;;;3.10;97.60;;;;;;4907592;28;20327;-59
2022/03/21 00:10:59;;;;;;;27.60;17.83;;;3.10;97.70;;;;;;4905234;28;20074;-59
2022/03/21 00:13:26;;;;;;;38.80;18.45;;;3.00;97.70;;;;;;4907072;29;20054;-59
2022/03/21 00:15:55;;;;;;;29.83;16.27;;;3.00;98.20;;;;;;4906813;29;20529;-58
2022/03/21 00:18:25;;;;;;;26.52;16.30;;;3.00;98.30;;;;;;4906202;29;20066;-59
2022/03/21 00:20:53;;;;;;;31.10;16.70;;;3.00;98.70;;;;;;4906253;28;20039;-58
2022/03/21 00:23:22;;;;;;;29.45;15.73;;;3.00;98.90;;;;;;4907125;29;20051;-59
2022/03/21 00:25:49;;;;;;;27.90;16.38;;;2.90;99.00;;;;;;4906913;29;20043;-59
2022/03/21 00:28:17;;;;;;;25.20;14.45;;;2.90;99.30;;;;;;4889994;29;20608;-57
2022/03/21 00:30:45;;;;;;;27.77;17.00;;;2.90;99.90;;;;;;4906048;28;20039;-58
2022/03/21 00:33:13;;;;;;;27.65;16.98;;;2.80;99.90;;;;;;4903167;29;20400;-58
2022/03/21 00:35:42;;;;;;;29.85;15.85;;;2.80;99.90;;;;;;4906370;29;20201;-58
2022/03/21 00:38:14;;;;;;;28.25;15.90;;;2.70;99.90;;;;;;4890247;29;20043;-59
2022/03/21 00:40:44;;;;;;;26.33;15.50;;;2.80;99.90;;;;;;4904575;28;20051;-59
2022/03/21 00:43:13;;;;;;;22.73;14.73;;;2.70;99.90;;;;;;4905630;29;20047;-59
2022/03/21 00:45:41;;;;;;;29.13;16.63;;;2.70;99.90;;;;;;4905548;29;20047;-56
2022/03/21 00:48:07;;;;;;;27.48;15.57;;;2.70;99.90;;;;;;4904874;29;20039;-58
2022/03/21 00:50:34;;;;;;;;;;;2.70;99.90;;;;;;4907045;29;20051;-58
2022/03/21 00:53:01;;;;;;;28.38;16.15;;;2.60;99.90;;;;;;4903117;29;20323;-58
2022/03/21 00:55:29;;;;;;;33.40;17.17;;;2.60;99.90;;;;;;4905403;29;20047;-59
2022/03/21 00:57:57;;;;;;;30.13;17.95;;;2.50;99.90;;;;;;4906657;29;20631;-59
2022/03/21 01:00:27;;;;;;;32.83;18.13;;;2.50;99.90;;;;;;4902776;29;20039;-59
2022/03/21 01:02:55;;;;;;;29.15;16.42;;;2.40;99.90;;;;;;4905218;29;20039;-58
2022/03/21 01:05:23;;;;;;;29.85;16.85;;;2.40;99.90;;;;;;4906100;29;20146;-59
2022/03/21 01:07:51;;;;;;;34.33;16.80;;;2.40;99.90;;;;;;4906194;29;20210;-58
2022/03/21 01:10:20;;;;;;;29.27;16.33;;;2.40;99.90;;;;;;4903796;28;20113;-58
2022/03/21 01:12:48;;;;;;;31.50;15.68;;;2.40;99.90;;;;;;4904651;29;20133;-58
2022/03/21 01:15:16;;;;;;;22.35;14.35;;;2.50;99.90;;;;;;4905871;29;20548;-59
2022/03/21 01:17:45;;;;;;;27.98;17.58;;;2.50;99.90;;;;;;4888744;29;20108;-58
2022/03/21 01:20:14;;;;;;;28.65;16.10;;;2.50;99.90;;;;;;4904636;28;20298;-58
2022/03/21 01:22:41;;;;;;;29.50;14.02;;;2.50;99.90;;;;;;4905051;28;20055;-59
2022/03/21 01:25:10;;;;;;;27.08;14.80;;;2.60;99.90;;;;;;4886908;29;20057;-58
2022/03/21 01:27:37;;;;;;;27.27;14.38;;;2.60;99.90;;;;;;4905861;29;20046;-59
2022/03/21 01:30:06;;;;;;;24.38;13.60;;;2.70;99.90;;;;;;4902712;28;20047;-58
2022/03/21 01:32:33;;;;;;;25.77;14.32;;;2.60;99.90;;;;;;4905108;29;20054;-58
2022/03/21 01:34:59;;;;;;;;;;;2.60;99.90;;;;;;4902831;29;20043;-59
2022/03/21 01:37:27;;;;;;;22.13;12.87;;;2.60;99.90;;;;;;4905394;29;19934;-58
2022/03/21 01:39:54;;;;;;;30.90;13.05;;;2.60;99.90;;;;;;4904126;28;20465;-59
2022/03/21 01:42:21;;;;;;;31.77;13.45;;;2.60;99.90;;;;;;4904391;29;20051;-59
2022/03/21 01:44:51;;;;;;;28.95;14.80;;;2.60;99.90;;;;;;4886387;29;20281;-59
2022/03/21 01:47:18;;;;;;;22.27;13.68;;;2.60;99.90;;;;;;4903861;29;20209;-59
2022/03/21 01:49:45;;;;;;;19.45;12.90;;;2.60;99.90;;;;;;4902536;29;20055;-59
2022/03/21 01:52:13;;;;;;;20.35;12.43;;;2.50;99.90;;;;;;4900593;29;20182;-59
2022/03/21 01:57:26;;;;;;;23.25;13.65;;;2.50;99.90;;;;;;4904660;29;20047;-59
2022/03/21 01:59:55;;;;;;;24.75;13.05;;;2.60;99.90;;;;;;4903583;28;20042;-59
2022/03/21 02:02:23;;;;;;;20.33;12.18;;;2.60;99.90;;;;;;4885369;29;20109;-59
2022/03/21 02:04:50;;;;;;;21.50;13.23;;;2.60;99.90;;;;;;4905220;28;20047;-58
2022/03/21 02:07:17;;;;;;;20.23;12.65;;;2.60;99.90;;;;;;4905266;29;20402;-57
2022/03/21 02:09:45;;;;;;;29.00;11.40;;;2.60;99.90;;;;;;4884641;29;20048;-59
2022/03/21 02:12:12;;;;;;;26.55;13.52;;;2.50;99.90;;;;;;4903360;29;20089;-58
2022/03/21 02:14:40;;;;;;;25.23;12.50;;;2.50;99.90;;;;;;4887025;29;20138;-58
2022/03/21 02:17:10;;;;;;;29.98;14.90;;;2.50;99.90;;;;;;4903312;28;20054;-58
2022/03/21 02:19:39;;;;;;;24.80;12.23;;;2.50;99.90;;;;;;4903746;28;20039;-59
2022/03/21 02:22:06;;;;;;;23.67;13.40;;;2.50;99.90;;;;;;4905114;28;20047;-58
2022/03/21 02:24:49;;;;;;;21.80;12.70;;;2.50;99.90;;;;;;4903409;29;20069;-59
2022/03/21 02:27:17;;;;;;;31.35;13.75;;;2.50;99.90;;;;;;4904758;29;20047;-59
2022/03/21 02:29:47;;;;;;;22.98;12.15;;;2.50;99.90;;;;;;4905037;28;20051;-57
2022/03/21 02:32:15;;;;;;;25.58;13.20;;;2.50;99.90;;;;;;4903119;29;20894;-57
2022/03/21 02:34:42;;;;;;;24.02;12.68;;;2.50;99.90;;;;;;4902541;29;20051;-58
2022/03/21 02:37:14;;;;;;;19.98;11.60;;;2.50;99.90;;;;;;4903337;28;20363;-58
2022/03/21 02:39:42;;;;;;;17.52;11.18;;;2.40;99.90;;;;;;4901819;29;20652;-59
2022/03/21 02:42:09;;;;;;;22.67;11.55;;;2.40;99.90;;;;;;4903830;29;20047;-58
2022/03/21 02:44:39;;;;;;;21.92;13.35;;;2.40;99.90;;;;;;4904869;29;20111;-58
2022/03/21 02:47:07;;;;;;;20.60;11.60;;;2.40;99.90;;;;;;4902299;29;20218;-58
2022/03/21 02:49:34;;;;;;;22.27;12.07;;;2.40;99.90;;;;;;4901953;28;20580;-58
2022/03/21 02:52:05;;;;;;;17.25;9.65;;;2.50;99.90;;;;;;4903194;29;20083;-58
2022/03/21 02:54:33;;;;;;;17.83;10.30;;;2.50;99.90;;;;;;4887321;29;20043;-59
2022/03/21 02:57:01;;;;;;;21.38;10.55;;;2.50;99.90;;;;;;4904071;29;20042;-60
2022/03/21 02:59:29;;;;;;;18.52;10.00;;;2.50;99.90;;;;;;4902141;28;20146;-58
2022/03/21 03:01:56;;;;;;;21.45;10.32;;;2.50;99.90;;;;;;4902415;29;20920;-60
2022/03/21 03:04:26;;;;;;;18.02;10.82;;;2.50;99.90;;;;;;4901198;29;20093;-58
2022/03/21 03:06:54;;;;;;;17.17;9.70;;;2.50;99.90;;;;;;4897389;28;20054;-58
2022/03/21 03:09:21;;;;;;;21.20;10.50;;;2.60;99.90;;;;;;4876705;29;20047;-58
2022/03/21 03:11:48;;;;;;;18.42;10.38;;;2.60;99.90;;;;;;4903222;28;20138;-59
2022/03/21 03:14:15;;;;;;;15.48;9.45;;;2.50;99.90;;;;;;4904683;29;20047;-59
2022/03/21 03:16:42;;;;;;;15.82;9.18;;;2.50;99.90;;;;;;4902986;29;20055;-58
2022/03/21 03:19:09;;;;;;;15.70;9.98;;;2.50;99.90;;;;;;4902223;28;20639;-59
2022/03/21 03:21:46;;;;;;;16.73;8.57;;;2.50;99.90;;;;;;4904267;29;20413;-58
2022/03/21 03:24:13;;;;;;;16.08;9.30;;;2.50;99.90;;;;;;4904281;29;20043;-58
2022/03/21 03:26:40;;;;;;;17.23;10.85;;;2.50;99.90;;;;;;4903105;29;20564;-58
2022/03/21 03:29:07;;;;;;;18.42;10.48;;;2.50;99.90;;;;;;4886012;28;20050;-58
2022/03/21 03:31:35;;;;;;;;;;;2.40;99.90;;;;;;4903487;29;20046;-59
2022/03/21 03:34:03;;;;;;;18.25;9.93;;;2.40;99.90;;;;;;4902857;28;20304;-59
2022/03/21 03:36:31;;;;;;;16.63;9.15;;;2.40;99.90;;;;;;4907924;29;20047;-58
2022/03/21 03:38:58;;;;;;;20.83;9.73;;;2.40;99.90;;;;;;4906119;29;20039;-59
2022/03/21 03:41:27;;;;;;;18.45;10.02;;;2.40;99.90;;;;;;4906459;29;20043;-58
2022/03/21 03:43:53;;;;;;;16.38;9.43;;;2.40;99.90;;;;;;4905591;29;20047;-59
2022/03/21 03:46:21;;;;;;;19.17;11.05;;;2.40;99.90;;;;;;4904613;29;20035;-59
2022/03/21 03:48:48;;;;;;;16.33;9.60;;;2.40;99.90;;;;;;4905711;29;20842;-60
2022/03/21 03:51:15;;;;;;;15.95;9.23;;;2.40;99.90;;;;;;4907202;29;20142;-59
2022/03/21 03:53:42;;;;;;;17.00;9.27;;;2.30;99.90;;;;;;4921718;28;20062;-58
2022/03/21 03:56:09;;;;;;;16.95;8.88;;;2.30;99.90;;;;;;4907849;29;20054;-59
2022/03/21 03:58:38;;;;;;;14.35;9.75;;;2.30;99.90;;;;;;4918661;28;20067;-59
2022/03/21 04:01:06;;;;;;;17.77;9.88;;;2.30;99.80;;;;;;4888798;29;20285;-59
2022/03/21 04:03:46;;;;;;;16.17;9.38;;;2.30;99.80;;;;;;4906553;29;20784;-60
2022/03/21 04:06:17;;;;;;;15.32;9.25;;;2.30;99.90;;;;;;4906468;29;20051;-59
2022/03/21 04:08:45;;;;;;;15.88;9.63;;;2.20;99.90;;;;;;4905779;29;20133;-59
2022/03/21 04:11:13;;;;;;;20.33;9.43;;;2.20;99.90;;;;;;4905997;29;20051;-59
2022/03/21 04:13:41;;;;;;;13.73;8.30;;;2.10;99.90;;;;;;4907194;29;20043;-58
2022/03/21 04:16:09;;;;;;;14.90;9.35;;;2.10;99.90;;;;;;4905209;29;20051;-58
2022/03/21 04:18:37;;;;;;;24.33;10.15;;;2.10;99.90;;;;;;4906385;29;20047;-59
2022/03/21 04:21:24;;;;;;;15.35;9.63;;;2.10;99.90;;;;;;4904831;28;20337;-59
2022/03/21 04:23:51;;;;;;;18.15;9.70;;;2.10;99.90;;;;;;4888378;29;20051;-60
2022/03/21 04:26:19;;;;;;;16.48;9.40;;;2.10;99.90;;;;;;4903553;29;20050;-58
2022/03/21 04:28:46;;;;;;;20.25;9.85;;;2.00;99.90;;;;;;4905274;29;20898;-59
2022/03/21 04:31:13;;;;;;;16.85;10.80;;;2.10;99.90;;;;;;4904121;28;20055;-58
2022/03/21 04:33:40;;;;;;;17.40;9.85;;;2.00;99.90;;;;;;4905983;28;20206;-60
2022/03/21 04:36:07;;;;;;;17.08;10.52;;;2.00;99.90;;;;;;4906349;29;20793;-59
2022/03/21 04:38:34;;;;;;;18.05;11.13;;;2.00;99.90;;;;;;4904966;29;20197;-59
2022/03/21 04:41:01;;;;;;;19.65;10.43;;;2.00;99.90;;;;;;4903616;28;20046;-59
2022/03/21 04:43:28;;;;;;;27.95;12.77;;;2.00;99.90;;;;;;4885046;29;20054;-58
2022/03/21 04:45:54;;;;;;;;;;;2.10;99.90;;;;;;4883691;29;20090;-59
2022/03/21 04:48:21;;;;;;;16.52;8.90;;;2.00;99.90;;;;;;4884387;29;20828;-58
2022/03/21 04:50:48;;;;;;;20.20;10.65;;;2.00;99.90;;;;;;4884265;29;20228;-60
2022/03/21 04:53:16;;;;;;;17.35;9.73;;;2.00;99.90;;;;;;4885022;29;20039;-59
2022/03/21 04:55:43;;;;;;;18.63;9.93;;;2.10;99.90;;;;;;4885752;29;20051;-59
2022/03/21 04:58:11;;;;;;;22.08;12.32;;;2.00;99.90;;;;;;4885018;29;20040;-59
2022/03/21 05:00:38;;;;;;;17.25;10.65;;;2.00;99.90;;;;;;4870659;29;20223;-59
2022/03/21 05:03:08;;;;;;;18.23;9.88;;;2.00;99.90;;;;;;4886050;29;20274;-59
2022/03/21 05:05:42;;;;;;;18.80;9.75;;;1.90;99.90;;;;;;4885994;29;20596;-58
2022/03/21 05:08:09;;;;;;;20.88;10.18;;;1.90;99.90;;;;;;4887245;29;20537;-59
2022/03/21 05:10:37;;;;;;;22.77;10.45;;;1.90;99.90;;;;;;4886136;29;20051;-59
2022/03/21 05:13:04;;;;;;;16.77;8.27;;;1.90;99.90;;;;;;4882997;29;20130;-59
2022/03/21 05:15:31;;;;;;;15.32;9.75;;;1.90;99.90;;;;;;4886742;29;20044;-59
2022/03/21 05:17:59;;;;;;;14.45;8.65;;;2.00;99.90;;;;;;4884447;29;20040;-59
2022/03/21 05:20:27;;;;;;;18.92;10.00;;;2.00;99.90;;;;;;4884416;29;20106;-59
2022/03/21 05:31:12;;;;;;;19.73;11.00;;;1.90;99.90;;;;;;4886614;29;20040;-54
2022/03/21 05:36:27;;;;;;;18.23;9.48;;;1.90;99.90;;;;;;4886591;29;20204;-54
2022/03/21 05:38:56;;;;;;;17.70;10.07;;;1.90;99.90;;;;;;4885802;29;20396;-54
2022/03/21 05:41:24;;;;;;;14.75;9.57;;;1.90;99.90;;;;;;4871601;29;20964;-55
2022/03/21 05:43:50;;;;;;;15.80;8.38;;;1.90;99.90;;;;;;4904826;29;20061;-55
2022/03/21 05:46:18;;;;;;;;;;;1.90;99.90;;;;;;4887146;29;20055;-55
2022/03/21 05:48:54;;;;;;;17.10;10.05;;;1.90;99.90;;;;;;4904729;28;19926;-54
2022/03/21 05:51:30;;;;;;;18.80;9.50;;;1.90;99.90;;;;;;4904620;28;20047;-54
2022/03/21 05:54:06;;;;;;;17.15;10.68;;;1.90;99.90;;;;;;4905127;29;20043;-54
2022/03/21 05:56:34;;;;;;;19.92;10.32;;;2.00;99.90;;;;;;4886629;29;20043;-54
2022/03/21 06:01:48;;;;;;;17.50;10.13;;;2.00;99.90;;;;;;4903920;29;20045;-55
2022/03/21 06:04:15;;;;;;;20.25;12.50;;;2.00;99.90;;;;;;4902449;29;20218;-53
2022/03/21 06:06:43;;;;;;;13.95;8.90;;;2.10;99.90;;;;;;4900587;29;20039;-54
2022/03/21 06:09:10;;;;;;;16.13;9.98;;;2.10;99.90;;;;;;4900126;28;20497;-54
2022/03/21 06:11:37;;;;;;;19.05;10.10;;;2.10;99.90;;;;;;4901158;29;20134;-54
2022/03/21 06:14:04;;;;;;;;;;;2.20;99.90;;;;;;4903637;29;20213;-53
2022/03/21 06:16:33;;;;;;;16.17;9.63;;;2.30;99.90;;;;;;4886140;29;20017;-55
2022/03/21 06:19:00;;;;;;;20.83;10.90;;;2.40;99.90;;;;;;4881480;29;20146;-54
2022/03/21 06:21:30;;;;;;;17.65;9.70;;;2.40;99.90;;;;;;4902325;28;20723;-51
2022/03/21 06:23:57;;;;;;;18.33;10.15;;;2.50;99.90;;;;;;4902910;29;20146;-50
2022/03/21 06:26:28;;;;;;;21.05;10.68;;;2.50;99.90;;;;;;4901265;29;20568;-51
2022/03/21 06:28:55;;;;;;;19.70;11.07;;;2.60;99.90;;;;;;4899687;29;20330;-50
2022/03/21 06:31:21;;;;;;;19.70;11.68;;;2.70;99.90;;;;;;4904194;28;20863;-55
2022/03/21 06:33:48;;;;;;;19.48;10.05;;;2.80;99.90;;;;;;4902251;29;20138;-55
2022/03/21 06:36:15;;;;;;;17.15;10.75;;;2.90;99.90;;;;;;4904689;28;20573;-56
2022/03/21 06:38:43;;;;;;;19.58;9.65;;;3.10;99.90;;;;;;4904366;29;20123;-55
2022/03/21 06:41:10;;;;;;;14.23;9.40;;;3.20;99.90;;;;;;4903210;28;20137;-54
2022/03/21 06:43:36;;;;;;;19.67;10.52;;;3.40;99.90;;;;;;4903540;29;21043;-55
2022/03/21 06:46:05;;;;;;;15.77;10.20;;;3.60;99.30;;;;;;4902719;29;20050;-54
2022/03/21 06:48:34;;;;;;;18.70;9.93;;;3.80;99.00;;;;;;4885980;29;20438;-54
2022/03/21 06:51:01;;;;;;;19.02;9.30;;;4.00;98.80;;;;;;4902100;28;20442;-53
2022/03/21 06:53:28;;;;;;;16.95;10.32;;;4.20;97.90;;;;;;4901779;29;20051;-53
2022/03/21 06:55:55;;;;;;;21.35;11.30;;;4.40;97.30;;;;;;4902301;29;20552;-53
2022/03/21 06:58:22;;;;;;;27.30;10.05;;;4.70;96.90;;;;;;4869482;29;20123;-55
2022/03/21 07:00:49;;;;;;;;;;;4.90;96.60;;;;;;4903822;28;20874;-50
2022/03/21 07:03:16;;;;;;;32.73;8.87;;;5.20;96.60;;;;;;4903528;28;19926;-51
2022/03/21 07:05:45;;;;;;;20.58;10.60;;;5.50;96.20;;;;;;4887481;29;20210;-57
2022/03/21 07:08:12;;;;;;;24.58;10.63;;;5.70;95.80;;;;;;4886310;28;20213;-54
2022/03/21 07:10:44;;;;;;;19.60;10.43;;;5.90;94.80;;;;;;4905080;28;20043;-53
2022/03/21 07:13:11;;;;;;;21.58;11.75;;;6.10;94.50;;;;;;4908312;29;20595;-54
2022/03/21 07:15:38;;;;;;;15.75;10.20;;;6.30;94.00;;;;;;4908186;29;20066;-54
2022/03/21 07:18:06;;;;;;;16.65;10.45;;;6.50;93.30;;;;;;4907785;28;20035;-53
2022/03/21 07:20:33;;;;;;;19.45;11.20;;;6.70;92.90;;;;;;4906325;28;20058;-52
2022/03/21 07:23:00;;;;;;;18.15;11.45;;;6.80;91.40;;;;;;4907196;29;20047;-53
2022/03/21 07:25:27;;;;;;;17.55;10.18;;;7.00;91.10;;;;;;4905169;29;20051;-53
2022/03/21 07:27:54;;;;;;;19.33;10.32;;;7.10;90.40;;;;;;4908065;29;20603;-51
2022/03/21 07:30:21;;;;;;;18.33;9.70;;;7.30;90.00;;;;;;4907655;28;20740;-52
2022/03/21 07:32:49;;;;;;;18.70;10.00;;;7.50;88.90;;;;;;4889807;29;20612;-54
2022/03/21 07:35:16;;;;;;;18.65;9.77;;;7.90;86.70;;;;;;4873150;29;20437;-53
2022/03/21 07:37:53;;;;;;;19.45;9.80;;;8.30;83.90;;;;;;4904854;29;20121;-53
2022/03/21 07:40:20;;;;;;;25.95;10.15;;;8.70;82.10;;;;;;4906755;28;20233;-52
2022/03/21 07:42:48;;;;;;;14.63;9.48;;;9.00;80.30;;;;;;4905855;29;20046;-52
2022/03/21 07:48:02;;;;;;;16.73;10.23;;;9.80;75.00;;;;;;4904313;29;20054;-55
2022/03/21 07:50:29;;;;;;;19.88;9.18;;;10.20;71.50;;;;;;4905804;28;20941;-53
2022/03/21 07:52:57;;;;;;;;;;;10.50;68.60;;;;;;4907290;28;20050;-53
2022/03/21 07:55:24;;;;;;;18.83;9.38;;;10.90;66.90;;;;;;4907807;29;19926;-53
2022/03/21 07:57:51;;;;;;;16.77;10.20;;;11.20;64.50;;;;;;4907086;29;20362;-53
2022/03/21 08:00:18;;;;;;;18.85;10.25;;;11.50;62.70;;;;;;4908006;28;20047;-53
2022/03/21 08:02:45;;;;;;;;;;;11.70;59.80;;;;;;4907124;29;20058;-63
2022/03/21 08:05:14;;;;;;;19.60;12.45;;;11.80;61.00;;;;;;4888066;29;19966;-62
2022/03/21 08:07:41;;;;;;;21.33;10.45;;;11.90;59.80;;;;;;4906602;29;20054;-57
2022/03/21 08:10:09;;;;;;;18.33;10.82;;;12.00;59.20;;;;;;4904891;29;20062;-52
2022/03/21 08:12:42;;;;;;;26.08;12.20;;;12.10;58.20;;;;;;4905237;29;20677;-54
2022/03/21 08:15:13;;;;;;;21.15;11.35;;;12.10;58.00;;;;;;4904556;29;20035;-53
2022/03/21 08:17:58;;;;;;;21.70;11.88;;;12.10;57.20;;;;;;4898645;29;20042;-54
2022/03/21 08:20:34;;;;;;;18.38;10.82;;;12.10;58.70;;;;;;4887490;29;20154;-55
2022/03/21 08:23:05;;;;;;;19.52;11.82;;;12.30;58.90;;;;;;4906724;29;20573;-54
2022/03/21 08:25:34;;;;;;;19.58;10.85;;;12.50;57.90;;;;;;4906993;29;20049;-54
2022/03/21 08:28:01;;;;;;;17.50;10.70;;;12.70;57.20;;;;;;4912600;28;20035;-55
2022/03/21 08:30:32;;;;;;;20.65;11.27;;;13.00;56.50;;;;;;4888679;29;20043;-63
2022/03/21 08:32:59;;;;;;;15.88;10.57;;;13.30;56.00;;;;;;4906647;29;20957;-55
2022/03/21 08:35:26;;;;;;;19.15;11.82;;;13.50;53.50;;;;;;4904449;29;20046;-54
2022/03/21 08:37:53;;;;;;;20.67;11.52;;;13.70;52.50;;;;;;4906904;29;20179;-53
2022/03/21 08:40:20;;;;;;;21.33;11.95;;;13.80;53.40;;;;;;4903255;29;20225;-55
2022/03/21 08:42:47;;;;;;;16.13;10.07;;;14.00;52.30;;;;;;4905310;28;20202;-56
2022/03/21 08:45:15;;;;;;;;;;;14.30;51.60;;;;;;4905953;29;20382;-53
2022/03/21 08:47:42;;;;;;;17.33;11.32;;;14.50;49.50;;;;;;4905710;29;20224;-65
2022/03/21 08:50:10;;;;;;;21.58;12.18;;;14.70;48.70;;;;;;4905511;28;20472;-52
2022/03/21 08:52:38;;;;;;;21.75;12.18;;;15.00;46.90;;;;;;4905536;29;20166;-56
2022/03/21 08:55:05;;;;;;;19.13;12.20;;;15.20;48.00;;;;;;4905145;29;20046;-51
2022/03/21 08:57:32;;;;;;;23.08;13.40;;;15.40;48.60;;;;;;4906835;29;20431;-52
2022/03/21 08:59:59;;;;;;;18.92;12.30;;;15.70;47.10;;;;;;4904910;28;20051;-53
2022/03/21 09:02:26;;;;;;;24.55;12.98;;;15.80;46.70;;;;;;4905619;29;20105;-51
2022/03/21 09:04:53;;;;;;;20.75;12.70;;;16.00;47.30;;;;;;4905206;29;20122;-53
2022/03/21 09:07:20;;;;;;;27.83;14.20;;;16.10;46.70;;;;;;4904179;29;20089;-53
2022/03/21 09:09:47;;;;;;;24.02;14.57;;;16.20;46.90;;;;;;4902974;28;20051;-54
2022/03/21 09:12:14;;;;;;;24.63;13.30;;;16.20;47.00;;;;;;4905092;29;20409;-54
2022/03/21 09:14:41;;;;;;;24.90;14.60;;;16.10;46.10;;;;;;4906838;29;20718;-54
2022/03/21 09:17:08;;;;;;;23.50;13.70;;;16.10;48.00;;;;;;4904721;29;20478;-54
2022/03/21 09:19:35;;;;;;;21.73;15.13;;;16.20;49.20;;;;;;4903872;28;20046;-54
2022/03/21 09:22:03;;;;;;;25.77;15.35;;;16.30;47.40;;;;;;4906613;29;20039;-54
2022/03/21 09:24:30;;;;;;;26.33;15.13;;;16.40;46.60;;;;;;4904684;29;20046;-51
2022/03/21 09:26:57;;;;;;;;;;;16.50;45.20;;;;;;4903295;29;20118;-53
2022/03/21 09:29:25;;;;;;;21.50;14.17;;;16.50;44.70;;;;;;4905062;28;20690;-52
2022/03/21 09:31:52;;;;;;;21.75;14.88;;;16.50;44.30;;;;;;4887734;29;21358;-53
2022/03/21 09:34:20;;;;;;;25.25;16.48;;;16.40;44.60;;;;;;4904403;28;20043;-53
2022/03/21 09:36:47;;;;;;;24.05;16.73;;;16.40;46.40;;;;;;4905641;29;20058;-53
2022/03/21 09:39:14;;;;;;;24.27;16.88;;;16.30;45.80;;;;;;4903934;28;20237;-53
2022/03/21 09:41:42;;;;;;;25.98;15.27;;;16.30;45.80;;;;;;4887029;29;20580;-53
2022/03/21 09:44:10;;;;;;;30.95;17.20;;;16.30;46.10;;;;;;4887502;29;20123;-53
2022/03/21 09:46:38;;;;;;;25.23;16.85;;;16.40;46.40;;;;;;4905523;29;20035;-52
2022/03/21 09:49:08;;;;;;;22.85;16.75;;;16.50;46.00;;;;;;4901775;28;20774;-52
2022/03/21 09:51:34;;;;;;;27.17;16.48;;;16.60;45.80;;;;;;4904068;29;20057;-50
2022/03/21 09:54:02;;;;;;;23.55;15.98;;;16.60;45.00;;;;;;4888122;29;20047;-54
2022/03/21 09:56:30;;;;;;;26.17;16.23;;;16.70;45.40;;;;;;4903306;29;20058;-52
2022/03/21 09:59:00;;;;;;;26.98;16.55;;;16.80;45.10;;;;;;4900683;29;20370;-51
2022/03/21 10:01:29;;;;;;;24.85;17.52;;;16.80;45.10;;;;;;4904379;28;20142;-49
2022/03/21 10:03:58;;;;;;;25.10;15.15;;;16.80;45.20;;;;;;4871476;29;20237;-51
2022/03/21 10:06:25;;;;;;;30.80;16.80;;;16.90;46.30;;;;;;4903120;29;20485;-50
2022/03/21 10:09:02;;;;;;;;;;;17.10;46.10;;;;;;4904688;29;20040;-52
2022/03/21 10:11:29;;;;;;;28.47;17.23;;;17.10;44.20;;;;;;4905028;29;20033;-59
2022/03/21 10:13:56;;;;;;;30.63;17.13;;;16.90;44.70;;;;;;4902870;29;20142;-57
2022/03/21 10:16:23;;;;;;;23.60;16.30;;;16.90;44.80;;;;;;4902920;29;20043;-54
2022/03/21 10:18:53;;;;;;;26.60;17.42;;;16.80;44.50;;;;;;4903868;29;20042;-57
2022/03/21 10:21:22;;;;;;;26.30;15.82;;;16.70;45.00;;;;;;4903621;28;20798;-57
2022/03/21 10:24:06;;;;;;;22.42;15.32;;;16.80;44.70;;;;;;4903467;29;20512;-50
2022/03/21 10:26:44;;;;;;;27.40;15.52;;;17.10;44.20;;;;;;4887522;29;20048;-53
2022/03/21 10:29:15;;;;;;;43.30;15.77;;;17.20;43.60;;;;;;4902516;28;20450;-63
2022/03/21 10:31:43;;;;;;;22.98;15.55;;;17.40;43.30;;;;;;4903051;29;20046;-54
2022/03/21 10:34:12;;;;;;;23.95;16.00;;;17.50;42.70;;;;;;4903087;29;20043;-59
2022/03/21 10:37:05;;;;;;;25.38;16.58;;;17.40;42.30;;;;;;4885731;29;20051;-54
2022/03/21 10:39:36;;;;;;;28.73;18.00;;;17.50;41.80;;;;;;4901690;28;20113;-61
2022/03/21 10:42:05;;;;;;;29.50;17.80;;;17.60;42.00;;;;;;4902375;29;20054;-55
2022/03/21 10:44:34;;;;;;;27.23;16.33;;;17.60;42.10;;;;;;4896252;29;20198;-53
2022/03/21 10:47:05;;;;;;;27.58;16.98;;;17.70;44.20;;;;;;4901088;29;20043;-53
2022/03/21 10:49:38;;;;;;;21.77;15.43;;;17.70;41.60;;;;;;4876394;29;20253;-58
2022/03/21 10:52:07;;;;;;;26.17;17.00;;;17.70;41.30;;;;;;4890580;29;20054;-59
2022/03/21 10:54:43;;;;;;;25.92;18.33;;;17.70;42.20;;;;;;4907387;29;20054;-57
2022/03/21 10:57:33;;;;;;;27.20;17.02;;;17.70;42.00;;;;;;4905355;28;20603;-58
2022/03/21 11:00:21;;;;;;;26.85;17.50;;;17.70;43.00;;;;;;4905506;28;20071;-59
2022/03/21 11:02:51;;;;;;;24.40;16.92;;;17.70;42.60;;;;;;4904617;29;20051;-58
2022/03/21 11:05:19;;;;;;;24.27;16.23;;;17.90;42.70;;;;;;4905811;29;20114;-58
2022/03/21 11:07:47;;;;;;;24.60;16.52;;;17.90;41.10;;;;;;4907963;29;20055;-58
2022/03/21 11:10:15;;;;;;;23.45;15.57;;;18.00;41.70;;;;;;4907510;28;20238;-59
2022/03/21 11:12:43;;;;;;;25.58;17.35;;;18.10;40.10;;;;;;4908412;28;20119;-58
2022/03/21 11:15:11;;;;;;;21.27;15.00;;;18.00;40.40;;;;;;4905277;29;20994;-59
2022/03/21 11:17:38;;;;;;;22.73;17.10;;;17.80;40.10;;;;;;4907791;29;20039;-58
2022/03/21 11:20:06;;;;;;;27.73;17.35;;;17.80;41.60;;;;;;4889490;29;20117;-56
2022/03/21 11:22:34;;;;;;;25.70;16.50;;;17.80;40.40;;;;;;4906870;29;20450;-56
2022/03/21 11:25:04;;;;;;;25.70;16.27;;;17.90;39.70;;;;;;4889744;29;20275;-58
2022/03/21 11:27:47;;;;;;;25.40;16.63;;;18.00;40.50;;;;;;4908708;29;20425;-58
2022/03/21 11:30:21;;;;;;;22.15;15.40;;;18.10;39.50;;;;;;4907054;28;20051;-57
2022/03/21 11:33:26;;;;;;;21.40;14.18;;;18.30;39.50;;;;;;4908376;29;20082;-57
2022/03/21 11:36:02;;;;;;;21.20;15.40;;;18.50;38.90;;;;;;4873730;29;20790;-57
2022/03/21 11:39:00;;;;;;;21.70;16.20;;;18.70;38.40;;;;;;4887794;29;20194;-57
2022/03/21 11:41:31;;;;;;;27.83;15.48;;;18.80;38.40;;;;;;4887966;29;20054;-54
2022/03/21 11:44:04;;;;;;;24.67;15.05;;;18.80;38.30;;;;;;4906555;29;20043;-54
2022/03/21 11:46:33;;;;;;;21.20;15.13;;;18.70;37.30;;;;;;4900867;29;20115;-54
2022/03/21 11:49:02;;;;;;;20.63;15.18;;;18.60;38.20;;;;;;4888098;29;20584;-54
2022/03/21 11:51:38;;;;;;;21.52;15.00;;;18.50;38.80;;;;;;4906226;28;20051;-55
2022/03/21 11:54:23;;;;;;;20.65;14.55;;;18.30;38.60;;;;;;4905979;28;20046;-54
2022/03/21 11:57:01;;;;;;;24.13;14.35;;;18.20;38.50;;;;;;4888205;29;20039;-55
2022/03/21 11:59:34;;;;;;;22.35;15.90;;;17.90;39.10;;;;;;4894621;28;20043;-55
2022/03/21 12:02:11;;;;;;;23.88;15.15;;;17.70;39.80;;;;;;4906681;29;20047;-54
2022/03/21 12:04:40;;;;;;;18.70;13.32;;;17.60;40.30;;;;;;4904515;29;20071;-56
2022/03/21 12:07:13;;;;;;;19.33;13.32;;;17.50;39.60;;;;;;4907704;29;20055;-57
2022/03/21 12:09:44;;;;;;;18.63;12.75;;;17.50;39.40;;;;;;4906310;28;20413;-55
2022/03/21 12:12:13;;;;;;;18.10;12.45;;;17.40;39.10;;;;;;4908455;29;20277;-57
2022/03/21 12:14:45;;;;;;;29.45;13.60;;;17.50;39.50;;;;;;4891019;29;20858;-57
2022/03/21 12:17:12;;;;;;;25.05;14.27;;;17.50;38.10;;;;;;4907790;29;20048;-57
2022/03/21 12:19:47;;;;;;;19.15;13.10;;;17.60;39.00;;;;;;4905241;28;20097;-57
2022/03/21 12:22:29;;;;;;;23.63;13.55;;;17.80;38.90;;;;;;4906430;29;20031;-58
2022/03/21 12:24:59;;;;;;;18.48;13.15;;;18.00;37.30;;;;;;4906874;29;20097;-57
2022/03/21 12:27:48;;;;;;;27.58;16.02;;;18.10;38.80;;;;;;4905791;29;20514;-57
2022/03/21 12:30:26;;;;;;;21.48;14.75;;;18.30;38.50;;;;;;4896214;28;20047;-57
2022/03/21 12:33:11;;;;;;;19.10;14.25;;;18.30;37.90;;;;;;4905614;29;20818;-57
2022/03/21 12:35:42;;;;;;;22.42;13.65;;;18.30;37.30;;;;;;4902907;29;20031;-59
2022/03/21 12:38:16;;;;;;;25.88;15.63;;;18.30;36.30;;;;;;4903506;29;20560;-57
2022/03/21 12:40:46;;;;;;;21.95;15.45;;;18.10;37.10;;;;;;4900745;29;21014;-58
2022/03/21 12:43:15;;;;;;;25.15;16.17;;;17.70;38.90;;;;;;4916855;28;20050;-58
2022/03/21 12:45:44;;;;;;;30.70;17.73;;;17.50;39.80;;;;;;4887302;29;20048;-57
2022/03/21 12:48:17;;;;;;;29.85;16.77;;;17.10;40.60;;;;;;4907129;28;20043;-58
2022/03/21 12:50:48;;;;;;;26.38;15.98;;;17.00;41.50;;;;;;4903364;28;20039;-57
2022/03/21 12:53:19;;;;;;;24.25;14.63;;;16.90;40.80;;;;;;4888732;29;20517;-57
2022/03/21 12:55:58;;;;;;;26.30;16.13;;;17.00;40.60;;;;;;4906229;29;20043;-58
2022/03/21 12:58:25;;;;;;;23.25;14.75;;;17.20;41.00;;;;;;4888267;29;20043;-57
2022/03/21 13:00:55;;;;;;;35.60;16.50;;;17.40;40.40;;;;;;4904546;28;20054;-57
2022/03/21 13:03:24;;;;;;;21.88;14.88;;;17.60;40.30;;;;;;4903437;29;20059;-60
2022/03/21 13:11:46;;;;;;;24.60;16.85;;;18.10;40.70;;;;;;4905261;29;20153;-57
2022/03/21 13:14:15;;;;;;;29.17;17.33;;;18.30;39.00;;;;;;4887330;29;20043;-58